Time;durP1;ratioP1;P1;durP2;ratioP2;P2;SDS_P1;SDS_P2;PMS_P1;PMS_P2;Temp;Humidity;BMP_temperature;BMP_pressure;BME280_temperature;BME280_humidity;BME280_pressure;Samples;Min_cycle;Max_cycle;Signal;HPM_P1;HPM_P2
2023/11/12 00:00:45;;;;;;;11.30;9.73;;;7.60;99.90;;;;;;4998021;28;20046;-74
2023/11/12 00:03:11;;;;;;;11.90;10.15;;;7.60;99.90;;;;;;4998202;28;20042;-74
2023/11/12 00:05:38;;;;;;;12.93;10.43;;;7.60;99.90;;;;;;4997767;28;20405;-74
2023/11/12 00:08:04;;;;;;;13.05;11.23;;;7.60;99.90;;;;;;5013508;28;20042;-74
2023/11/12 00:10:31;;;;;;;12.25;10.95;;;7.60;99.90;;;;;;4997751;28;20129;-75
2023/11/12 00:12:57;;;;;;;12.10;10.25;;;7.60;99.90;;;;;;4996997;28;20033;-74
2023/11/12 00:15:24;;;;;;;10.77;9.57;;;7.60;99.90;;;;;;4983220;28;20041;-73
2023/11/12 00:17:50;;;;;;;14.38;10.68;;;7.60;99.90;;;;;;4979080;28;20041;-72
2023/11/12 00:20:17;;;;;;;14.23;10.75;;;7.60;99.90;;;;;;4997656;28;20026;-74
2023/11/12 00:22:43;;;;;;;14.63;10.40;;;7.60;99.90;;;;;;4982129;28;20104;-74
2023/11/12 00:25:13;;;;;;;11.40;10.20;;;7.60;99.90;;;;;;4999266;28;20022;-74
2023/11/12 00:27:40;;;;;;;14.07;11.20;;;7.60;99.90;;;;;;4999996;28;20030;-74
2023/11/12 00:30:07;;;;;;;12.32;10.52;;;7.60;99.90;;;;;;5030640;28;20439;-74
2023/11/12 00:32:34;;;;;;;12.25;9.82;;;7.60;99.90;;;;;;4980134;28;20038;-73
2023/11/12 00:35:01;;;;;;;11.75;9.65;;;7.60;99.90;;;;;;4997531;28;20034;-75
2023/11/12 00:37:27;;;;;;;12.50;11.25;;;7.60;99.90;;;;;;4994308;28;20044;-74
2023/11/12 00:39:54;;;;;;;14.40;12.45;;;7.60;99.90;;;;;;4997674;28;20037;-74
2023/11/12 00:42:20;;;;;;;15.10;12.48;;;7.60;99.90;;;;;;5029924;28;20255;-74
2023/11/12 00:44:46;;;;;;;15.38;12.32;;;7.60;99.90;;;;;;4995522;28;21438;-74
2023/11/12 00:47:13;;;;;;;14.07;11.93;;;7.60;99.90;;;;;;4981213;28;20034;-73
2023/11/12 00:49:39;;;;;;;15.88;11.77;;;7.60;99.90;;;;;;4997923;28;20388;-74
2023/11/12 00:52:05;;;;;;;13.07;11.05;;;7.60;99.90;;;;;;4995389;28;20423;-73
2023/11/12 00:54:32;;;;;;;14.07;12.57;;;7.60;99.90;;;;;;5010820;28;20042;-73
2023/11/12 00:56:59;;;;;;;14.02;12.35;;;7.60;99.90;;;;;;4996055;28;20050;-75
2023/11/12 00:59:25;;;;;;;14.07;10.95;;;7.50;99.90;;;;;;4994467;28;20039;-74
2023/11/12 01:01:51;;;;;;;13.35;10.32;;;7.40;99.90;;;;;;4995267;28;20045;-74
2023/11/12 01:04:18;;;;;;;13.77;10.80;;;7.30;99.90;;;;;;4997175;28;20046;-72
2023/11/12 01:06:44;;;;;;;15.48;11.02;;;7.10;99.90;;;;;;4994236;28;20026;-73
2023/11/12 01:09:11;;;;;;;13.00;11.60;;;7.10;99.90;;;;;;4996127;28;20042;-74
2023/11/12 01:11:38;;;;;;;12.25;9.48;;;7.00;99.90;;;;;;4979090;28;20032;-74
2023/11/12 01:14:04;;;;;;;13.65;11.20;;;6.90;99.90;;;;;;4978673;28;20405;-74
2023/11/12 01:16:30;;;;;;;12.55;10.70;;;6.80;99.90;;;;;;4996506;28;20038;-74
2023/11/12 01:19:00;;;;;;;13.00;11.38;;;6.70;99.90;;;;;;4996858;28;20034;-74
2023/11/12 01:21:26;;;;;;;13.63;10.48;;;6.60;99.90;;;;;;4996649;28;20030;-73
2023/11/12 01:23:53;;;;;;;11.95;10.50;;;6.50;99.90;;;;;;4996210;28;20041;-74
2023/11/12 01:26:19;;;;;;;10.57;9.48;;;6.40;99.90;;;;;;4996143;28;20037;-73
2023/11/12 01:28:45;;;;;;;13.30;11.10;;;6.40;99.90;;;;;;4963022;28;20037;-73
2023/11/12 01:31:13;;;;;;;13.18;11.23;;;6.30;99.90;;;;;;4977913;28;20450;-73
2023/11/12 01:33:40;;;;;;;13.38;11.27;;;6.30;99.90;;;;;;5008563;28;20099;-74
2023/11/12 01:36:06;;;;;;;17.13;13.27;;;6.20;99.90;;;;;;4978039;28;20034;-73
2023/11/12 01:38:33;;;;;;;14.38;11.55;;;6.10;99.90;;;;;;4979651;28;20520;-73
2023/11/12 01:41:03;;;;;;;11.73;10.02;;;6.10;99.90;;;;;;4994766;28;20041;-72
2023/11/12 01:43:30;;;;;;;14.63;12.40;;;6.10;99.90;;;;;;4980860;28;20390;-74
2023/11/12 01:45:58;;;;;;;13.45;12.05;;;6.00;99.90;;;;;;4977985;28;20037;-73
2023/11/12 01:48:25;;;;;;;12.73;10.82;;;6.00;99.90;;;;;;5011640;28;20030;-74
2023/11/12 01:50:51;;;;;;;15.00;12.20;;;5.90;99.90;;;;;;4978112;28;20026;-74
2023/11/12 01:53:19;;;;;;;14.15;11.38;;;5.90;99.90;;;;;;4979029;28;20026;-74
2023/11/12 01:55:46;;;;;;;13.35;12.05;;;5.90;99.90;;;;;;4996005;28;20835;-74
2023/11/12 01:58:14;;;;;;;16.08;12.18;;;5.90;99.90;;;;;;4978240;28;20034;-73
2023/11/12 02:00:41;;;;;;;12.50;11.00;;;5.80;99.90;;;;;;5004650;28;20405;-74
2023/11/12 02:03:12;;;;;;;19.40;15.07;;;5.90;99.90;;;;;;4978464;28;20033;-74
2023/11/12 02:05:39;;;;;;;15.02;13.20;;;5.80;99.90;;;;;;4962345;28;20045;-73
2023/11/12 02:08:08;;;;;;;16.67;13.70;;;5.80;99.90;;;;;;4978367;28;20041;-73
2023/11/12 02:10:36;;;;;;;16.85;13.32;;;5.80;99.90;;;;;;4977317;28;20033;-74
2023/11/12 02:13:04;;;;;;;17.35;14.38;;;5.70;99.90;;;;;;4995514;28;20041;-72
2023/11/12 02:15:31;;;;;;;17.70;15.45;;;5.70;99.90;;;;;;5010795;28;20511;-74
2023/11/12 02:17:57;;;;;;;14.15;12.57;;;5.70;99.90;;;;;;4994972;28;20026;-74
2023/11/12 02:20:25;;;;;;;16.95;13.32;;;5.60;99.90;;;;;;4994959;28;20037;-73
2023/11/12 02:22:54;;;;;;;16.70;13.45;;;5.60;99.90;;;;;;4979428;28;20042;-74
2023/11/12 02:25:21;;;;;;;14.55;12.40;;;5.60;99.90;;;;;;4995662;28;20034;-73
2023/11/12 02:27:48;;;;;;;13.90;11.93;;;5.60;99.90;;;;;;4978363;28;20444;-74
2023/11/12 02:30:15;;;;;;;17.27;14.95;;;5.60;99.90;;;;;;5010477;28;20034;-74
2023/11/12 02:32:41;;;;;;;17.75;14.38;;;5.60;99.90;;;;;;4977315;28;20517;-74
2023/11/12 02:35:08;;;;;;;15.10;13.45;;;5.70;99.90;;;;;;4995458;28;21046;-73
2023/11/12 02:37:35;;;;;;;16.55;14.20;;;5.70;99.90;;;;;;4978966;28;20508;-74
2023/11/12 02:40:02;;;;;;;15.30;12.52;;;5.70;99.90;;;;;;4993724;28;20033;-73
2023/11/12 02:42:29;;;;;;;16.67;14.23;;;5.80;99.90;;;;;;4976549;28;20053;-73
2023/11/12 02:44:57;;;;;;;16.55;13.88;;;5.80;99.90;;;;;;5010283;28;20041;-74
2023/11/12 02:47:23;;;;;;;14.18;12.65;;;5.90;99.90;;;;;;4994827;28;20037;-74
2023/11/12 02:49:56;;;;;;;18.10;13.45;;;6.00;99.90;;;;;;4962399;28;20418;-75
2023/11/12 02:52:22;;;;;;;14.27;12.00;;;6.00;99.90;;;;;;4994283;28;20061;-75
2023/11/12 02:54:49;;;;;;;17.98;14.18;;;6.10;99.90;;;;;;4994427;28;20049;-74
2023/11/12 02:57:15;;;;;;;20.17;15.50;;;6.10;99.90;;;;;;4976812;28;20034;-75
2023/11/12 02:59:41;;;;;;;16.90;14.73;;;6.20;99.90;;;;;;4995431;28;20033;-73
2023/11/12 03:02:08;;;;;;;18.20;15.48;;;6.20;99.90;;;;;;5024878;28;20052;-73
2023/11/12 03:04:34;;;;;;;17.17;15.00;;;6.20;99.90;;;;;;4977708;28;20232;-74
2023/11/12 03:07:00;;;;;;;19.00;14.75;;;6.30;99.90;;;;;;4993772;28;20034;-74
2023/11/12 03:09:27;;;;;;;19.50;15.65;;;6.30;99.90;;;;;;4993765;28;20030;-74
2023/11/12 03:11:53;;;;;;;17.92;14.20;;;6.30;99.90;;;;;;4992734;28;20368;-74
2023/11/12 03:14:21;;;;;;;18.58;14.35;;;6.30;99.90;;;;;;4991046;28;20035;-73
2023/11/12 03:16:51;;;;;;;16.90;14.38;;;6.30;99.90;;;;;;4993883;28;20101;-73
2023/11/12 03:19:17;;;;;;;15.75;14.02;;;6.30;99.90;;;;;;4994823;28;20030;-74
2023/11/12 03:21:49;;;;;;;14.30;12.73;;;6.20;99.90;;;;;;4993571;28;20034;-74
2023/11/12 03:24:16;;;;;;;13.48;12.05;;;6.10;99.90;;;;;;4995478;28;20037;-74
2023/11/12 03:26:42;;;;;;;14.52;12.60;;;6.10;99.90;;;;;;4978299;28;20046;-74
2023/11/12 03:29:08;;;;;;;14.63;13.10;;;6.10;99.90;;;;;;4977660;28;20100;-73
2023/11/12 03:31:35;;;;;;;13.98;12.05;;;6.00;99.90;;;;;;4993479;28;20437;-74
2023/11/12 03:34:03;;;;;;;17.02;13.52;;;6.00;99.90;;;;;;4977686;28;20030;-74
2023/11/12 03:36:29;;;;;;;15.93;14.25;;;6.00;99.90;;;;;;4994155;28;20034;-74
2023/11/12 03:38:56;;;;;;;14.60;13.10;;;6.00;99.90;;;;;;5009594;28;20034;-73
2023/11/12 03:41:22;;;;;;;17.55;14.25;;;6.00;99.90;;;;;;4977119;28;20049;-73
2023/11/12 03:43:48;;;;;;;14.60;12.32;;;6.00;99.90;;;;;;4977504;28;20050;-73
2023/11/12 03:46:15;;;;;;;14.50;12.43;;;5.90;99.90;;;;;;4993710;28;20042;-73
2023/11/12 03:48:42;;;;;;;16.05;13.13;;;6.00;99.90;;;;;;5009881;28;20512;-73
2023/11/12 03:51:08;;;;;;;15.75;13.90;;;6.00;99.90;;;;;;4994084;28;20025;-73
2023/11/12 03:53:34;;;;;;;15.85;14.10;;;6.00;99.90;;;;;;4992225;28;20037;-73
2023/11/12 03:56:01;;;;;;;16.70;14.52;;;6.00;99.90;;;;;;4978082;28;20041;-74
2023/11/12 03:58:30;;;;;;;18.00;14.95;;;6.10;99.90;;;;;;4976984;28;20041;-75
2023/11/12 04:00:57;;;;;;;17.40;14.43;;;6.10;99.90;;;;;;4972749;28;20038;-75
2023/11/12 04:03:25;;;;;;;15.75;14.07;;;6.20;99.90;;;;;;5026870;28;20699;-74
2023/11/12 04:05:51;;;;;;;17.38;14.13;;;6.20;99.90;;;;;;4993379;28;20053;-74
2023/11/12 04:08:18;;;;;;;21.17;18.45;;;6.20;99.90;;;;;;4978034;28;20037;-74
2023/11/12 04:10:46;;;;;;;18.10;16.02;;;6.20;99.90;;;;;;4977921;28;20041;-74
2023/11/12 04:13:12;;;;;;;18.88;16.38;;;6.20;99.90;;;;;;4976468;28;20342;-74
2023/11/12 04:15:39;;;;;;;18.63;16.38;;;6.20;99.90;;;;;;4977873;28;20485;-75
2023/11/12 04:18:05;;;;;;;19.70;16.30;;;6.30;99.90;;;;;;4977551;28;20034;-75
2023/11/12 04:20:33;;;;;;;19.10;16.60;;;6.30;99.90;;;;;;4994034;28;20044;-74
2023/11/12 04:23:00;;;;;;;17.05;15.05;;;6.30;99.90;;;;;;5009557;28;20516;-75
2023/11/12 04:25:26;;;;;;;17.55;15.63;;;6.30;99.90;;;;;;4993237;28;20045;-74
2023/11/12 04:27:52;;;;;;;18.55;15.30;;;6.30;99.90;;;;;;4977372;28;20360;-73
2023/11/12 04:30:18;;;;;;;19.30;15.90;;;6.30;99.90;;;;;;4977176;28;20046;-72
2023/11/12 04:32:45;;;;;;;21.55;18.48;;;6.30;99.90;;;;;;4977523;28;20037;-74
2023/11/12 04:35:12;;;;;;;21.23;18.00;;;6.30;99.90;;;;;;4996353;28;20041;-74
2023/11/12 04:37:39;;;;;;;22.63;18.08;;;6.30;99.90;;;;;;4998325;28;20033;-74
2023/11/12 04:40:09;;;;;;;21.08;17.02;;;6.30;99.90;;;;;;5010983;28;20408;-74
2023/11/12 04:42:36;;;;;;;22.83;18.42;;;6.30;99.90;;;;;;4995528;28;20037;-75
2023/11/12 04:45:02;;;;;;;23.55;18.13;;;6.30;99.90;;;;;;4997521;28;20408;-74
2023/11/12 04:47:29;;;;;;;19.40;16.73;;;6.30;99.90;;;;;;5028234;28;20030;-73
2023/11/12 04:49:55;;;;;;;18.65;15.88;;;6.30;99.90;;;;;;4997075;28;20048;-74
2023/11/12 04:52:21;;;;;;;22.63;18.75;;;6.30;99.90;;;;;;4978838;28;20041;-73
2023/11/12 04:54:50;;;;;;;25.20;19.63;;;6.30;99.90;;;;;;4979691;28;20048;-73
2023/11/12 04:57:17;;;;;;;21.05;18.40;;;6.30;99.90;;;;;;4996478;28;20038;-74
2023/11/12 04:59:43;;;;;;;22.08;17.77;;;6.30;99.90;;;;;;4995535;28;20041;-73
2023/11/12 05:02:13;;;;;;;22.75;19.13;;;6.30;99.90;;;;;;4997339;28;20029;-74
2023/11/12 05:04:41;;;;;;;24.27;19.40;;;6.30;99.90;;;;;;4963480;28;20046;-74
2023/11/12 05:07:08;;;;;;;21.80;19.42;;;6.30;99.90;;;;;;4994902;28;20042;-75
2023/11/12 05:09:35;;;;;;;27.30;21.15;;;6.40;99.90;;;;;;4979262;28;20033;-75
2023/11/12 05:12:02;;;;;;;25.25;20.77;;;6.30;99.90;;;;;;4995032;28;20049;-74
2023/11/12 05:14:28;;;;;;;23.38;19.70;;;6.40;99.90;;;;;;4996936;28;20033;-74
2023/11/12 05:16:54;;;;;;;26.38;19.40;;;6.40;99.90;;;;;;4996618;28;20045;-74
2023/11/12 05:19:21;;;;;;;26.30;21.20;;;6.40;99.90;;;;;;5011841;28;20053;-75
2023/11/12 05:21:47;;;;;;;26.40;21.90;;;6.40;99.90;;;;;;4978394;28;20053;-75
2023/11/12 05:24:14;;;;;;;26.60;23.17;;;6.40;99.90;;;;;;5027538;28;20053;-73
2023/11/12 05:26:44;;;;;;;28.80;22.80;;;6.50;99.90;;;;;;4996643;28;20057;-73
2023/11/12 05:29:10;;;;;;;28.60;22.80;;;6.40;99.90;;;;;;4998120;28;20491;-73
2023/11/12 05:31:36;;;;;;;32.10;25.90;;;6.50;99.90;;;;;;5027498;28;20528;-74
2023/11/12 05:34:03;;;;;;;29.95;22.60;;;6.50;99.90;;;;;;4980102;28;20060;-74
2023/11/12 05:36:29;;;;;;;33.00;27.40;;;6.50;99.90;;;;;;4995309;28;20041;-74
2023/11/12 05:38:55;;;;;;;34.65;26.17;;;6.50;99.90;;;;;;4995134;28;20040;-73
2023/11/12 05:41:22;;;;;;;34.25;27.52;;;6.50;99.90;;;;;;4978378;28;20046;-73
2023/11/12 05:43:50;;;;;;;33.50;25.90;;;6.50;99.90;;;;;;4997233;28;20049;-74
2023/11/12 05:46:16;;;;;;;37.25;26.45;;;6.60;99.90;;;;;;4964331;28;20034;-75
2023/11/12 05:48:43;;;;;;;32.28;26.13;;;6.50;99.90;;;;;;4981761;28;20037;-75
2023/11/12 05:51:09;;;;;;;31.02;25.23;;;6.60;99.90;;;;;;5007771;28;20037;-74
2023/11/12 05:53:36;;;;;;;30.92;26.05;;;6.50;99.90;;;;;;4997478;28;20042;-74
2023/11/12 05:56:03;;;;;;;32.22;26.58;;;6.60;99.90;;;;;;4997017;28;20033;-74
2023/11/12 05:58:30;;;;;;;30.63;24.75;;;6.50;99.90;;;;;;4980474;28;20029;-73
2023/11/12 06:00:58;;;;;;;28.73;23.08;;;6.50;99.90;;;;;;4997834;28;20389;-74
2023/11/12 06:03:24;;;;;;;25.27;21.58;;;6.50;99.90;;;;;;4999444;28;20034;-74
2023/11/12 06:05:51;;;;;;;32.78;23.75;;;6.40;99.90;;;;;;4997816;28;20030;-74
2023/11/12 06:08:17;;;;;;;29.58;24.33;;;6.40;99.90;;;;;;4980429;28;20030;-73
2023/11/12 06:10:43;;;;;;;30.75;24.40;;;6.30;99.90;;;;;;4980183;28;20060;-74
2023/11/12 06:13:10;;;;;;;30.55;24.10;;;6.20;99.90;;;;;;4981268;28;20497;-74
2023/11/12 06:15:36;;;;;;;27.95;24.02;;;6.20;99.90;;;;;;4981217;28;20041;-74
2023/11/12 06:18:03;;;;;;;26.02;22.73;;;6.20;99.90;;;;;;4980188;28;20029;-74
2023/11/12 06:20:29;;;;;;;28.75;23.65;;;6.20;99.90;;;;;;4997849;28;20048;-74
2023/11/12 06:22:56;;;;;;;27.13;22.38;;;6.10;99.90;;;;;;4999515;28;20044;-74
2023/11/12 06:25:25;;;;;;;27.27;22.10;;;6.10;99.90;;;;;;4999117;28;20033;-74
2023/11/12 06:27:51;;;;;;;21.27;18.98;;;6.00;99.90;;;;;;5012447;28;20037;-74
2023/11/12 06:30:18;;;;;;;21.75;18.77;;;5.90;99.90;;;;;;4996691;28;20037;-73
2023/11/12 06:32:46;;;;;;;23.65;19.23;;;5.90;99.90;;;;;;4998314;28;20353;-74
2023/11/12 06:35:12;;;;;;;21.35;18.23;;;5.80;99.90;;;;;;4996005;28;20396;-73
2023/11/12 06:37:39;;;;;;;24.92;19.88;;;5.70;99.90;;;;;;4996502;28;20408;-74
2023/11/12 06:40:06;;;;;;;23.58;18.85;;;5.60;99.90;;;;;;4965067;28;20045;-75
2023/11/12 06:42:33;;;;;;;21.67;17.63;;;5.50;99.90;;;;;;5012910;28;20468;-74
2023/11/12 06:44:59;;;;;;;20.05;17.10;;;5.50;99.90;;;;;;4996226;28;20057;-73
2023/11/12 06:47:25;;;;;;;19.20;16.60;;;5.40;99.90;;;;;;4996099;28;20417;-74
2023/11/12 06:49:52;;;;;;;21.23;18.05;;;5.40;99.90;;;;;;4964601;28;20061;-74
2023/11/12 06:52:18;;;;;;;21.95;18.83;;;5.30;99.90;;;;;;4995509;28;20037;-74
2023/11/12 06:54:44;;;;;;;21.70;19.33;;;5.20;99.90;;;;;;4997547;28;20038;-74
2023/11/12 06:57:11;;;;;;;21.25;16.98;;;5.20;99.90;;;;;;4996765;28;20045;-74
2023/11/12 06:59:37;;;;;;;22.65;19.17;;;5.20;99.90;;;;;;5011797;28;20416;-74
2023/11/12 07:02:03;;;;;;;23.63;18.58;;;5.20;99.90;;;;;;4978618;28;20056;-74
2023/11/12 07:04:30;;;;;;;20.75;17.50;;;5.10;99.90;;;;;;4995048;28;20044;-73
2023/11/12 07:06:56;;;;;;;20.80;17.15;;;5.10;99.90;;;;;;5009707;28;20030;-74
2023/11/12 07:09:25;;;;;;;22.27;17.75;;;5.10;99.90;;;;;;4980574;28;20038;-75
2023/11/12 07:11:51;;;;;;;22.10;18.35;;;5.10;99.90;;;;;;4999006;28;20040;-75
2023/11/12 07:14:18;;;;;;;21.77;18.08;;;5.10;99.90;;;;;;4993546;28;20060;-74
2023/11/12 07:16:44;;;;;;;25.33;21.52;;;5.10;99.90;;;;;;4963732;28;20619;-74
2023/11/12 07:19:13;;;;;;;26.45;21.27;;;5.30;99.90;;;;;;4996088;28;20043;-74
2023/11/12 07:21:40;;;;;;;28.90;21.25;;;5.30;99.90;;;;;;4994605;28;21316;-74
2023/11/12 07:24:07;;;;;;;25.75;20.77;;;5.40;99.90;;;;;;4995638;28;20045;-75
2023/11/12 07:26:34;;;;;;;25.45;21.20;;;5.50;99.90;;;;;;5011643;28;20030;-74
2023/11/12 07:29:00;;;;;;;23.15;19.27;;;5.60;99.90;;;;;;4996619;28;20026;-73
2023/11/12 07:31:27;;;;;;;25.20;20.92;;;5.70;99.90;;;;;;4994339;28;20041;-74
2023/11/12 07:33:54;;;;;;;29.38;22.50;;;5.70;99.90;;;;;;4996413;28;20038;-75
2023/11/12 07:36:21;;;;;;;25.75;21.77;;;5.80;99.90;;;;;;4997097;28;20030;-75
2023/11/12 07:38:47;;;;;;;26.88;22.08;;;5.90;99.90;;;;;;4994905;28;20042;-75
2023/11/12 07:41:14;;;;;;;29.23;22.42;;;6.00;99.90;;;;;;4977756;28;20042;-75
2023/11/12 07:43:40;;;;;;;29.23;22.88;;;6.00;99.90;;;;;;4996219;28;20034;-76
2023/11/12 07:46:07;;;;;;;30.23;23.83;;;6.10;99.90;;;;;;4995032;28;20030;-75
2023/11/12 07:48:33;;;;;;;31.02;22.52;;;6.20;99.90;;;;;;4995473;28;20034;-75
2023/11/12 07:51:00;;;;;;;30.10;22.45;;;6.20;99.90;;;;;;4994683;28;20030;-74
2023/11/12 07:53:27;;;;;;;36.00;25.10;;;6.30;99.90;;;;;;4978949;28;20038;-75
2023/11/12 07:55:53;;;;;;;31.25;24.83;;;6.40;99.90;;;;;;5010393;28;20033;-75
2023/11/12 07:58:20;;;;;;;28.83;22.80;;;6.40;99.90;;;;;;4995713;28;20370;-75
2023/11/12 08:00:46;;;;;;;33.22;25.52;;;6.50;99.90;;;;;;4993276;28;20526;-75
2023/11/12 08:03:13;;;;;;;33.80;25.10;;;6.60;99.90;;;;;;5027400;28;20520;-73
2023/11/12 08:05:40;;;;;;;39.25;27.13;;;6.60;99.90;;;;;;4977957;28;20068;-75
2023/11/12 08:08:07;;;;;;;41.33;31.58;;;6.60;99.90;;;;;;4995381;28;20038;-73
2023/11/12 08:10:37;;;;;;;41.47;31.13;;;6.60;99.90;;;;;;4999588;28;20041;-75
2023/11/12 08:13:04;;;;;;;40.95;29.65;;;6.70;99.90;;;;;;4995165;28;20397;-73
2023/11/12 08:15:30;;;;;;;40.50;31.73;;;6.70;99.90;;;;;;4965966;28;20033;-74
2023/11/12 08:17:57;;;;;;;37.05;28.30;;;6.80;99.90;;;;;;4982163;28;20042;-74
2023/11/12 08:20:23;;;;;;;35.08;27.55;;;6.80;99.90;;;;;;4998378;28;20519;-75
2023/11/12 08:22:49;;;;;;;33.60;25.17;;;6.90;99.90;;;;;;4999246;28;20493;-74
2023/11/12 08:25:16;;;;;;;34.67;26.67;;;6.90;99.90;;;;;;4997907;28;20046;-73
2023/11/12 08:27:42;;;;;;;35.50;27.02;;;7.00;99.90;;;;;;4998397;28;20369;-74
2023/11/12 08:30:09;;;;;;;35.03;26.40;;;7.00;99.90;;;;;;4981600;28;20029;-75
2023/11/12 08:32:35;;;;;;;34.83;26.17;;;7.10;99.90;;;;;;4996990;28;20481;-75
2023/11/12 08:35:02;;;;;;;38.17;28.42;;;7.10;99.90;;;;;;4997650;28;20033;-74
2023/11/12 08:37:28;;;;;;;35.90;26.98;;;7.10;99.90;;;;;;4997651;28;20061;-75
2023/11/12 08:39:55;;;;;;;35.50;26.65;;;7.20;99.90;;;;;;4980409;28;20038;-75
2023/11/12 08:42:23;;;;;;;34.42;26.85;;;7.20;99.90;;;;;;4997993;28;20030;-74
2023/11/12 08:44:50;;;;;;;33.75;25.80;;;7.30;99.90;;;;;;5013742;28;20057;-76
2023/11/12 08:47:16;;;;;;;37.63;27.15;;;7.40;99.90;;;;;;4981061;28;20030;-75
2023/11/12 08:49:43;;;;;;;36.20;25.98;;;7.40;99.90;;;;;;4997109;28;20044;-75
2023/11/12 08:52:11;;;;;;;36.75;26.88;;;7.50;99.90;;;;;;4997969;28;20045;-72
2023/11/12 08:54:38;;;;;;;38.50;27.58;;;7.50;99.90;;;;;;4964076;28;20042;-75
2023/11/12 08:57:05;;;;;;;38.53;28.63;;;7.60;99.90;;;;;;4999236;28;20603;-75
2023/11/12 08:59:31;;;;;;;40.60;27.85;;;7.60;99.90;;;;;;5013798;28;20038;-73
2023/11/12 09:01:57;;;;;;;45.08;31.27;;;7.70;99.90;;;;;;4995983;28;20026;-75
2023/11/12 09:04:24;;;;;;;41.55;30.23;;;7.70;99.90;;;;;;4996637;28;20045;-75
2023/11/12 09:06:50;;;;;;;40.45;28.73;;;7.60;99.90;;;;;;4997273;28;20051;-74
2023/11/12 09:09:17;;;;;;;38.05;27.05;;;7.60;99.90;;;;;;4964343;28;20030;-75
2023/11/12 09:11:44;;;;;;;39.70;28.58;;;7.60;99.90;;;;;;4996269;28;20037;-75
2023/11/12 09:14:12;;;;;;;35.58;25.88;;;7.60;99.90;;;;;;4996560;28;20034;-75
2023/11/12 09:16:42;;;;;;;29.80;23.35;;;7.60;99.90;;;;;;4999600;28;20036;-75
2023/11/12 09:19:09;;;;;;;31.08;24.15;;;7.60;99.90;;;;;;4998426;28;20401;-73
2023/11/12 09:21:36;;;;;;;33.22;23.77;;;7.70;99.90;;;;;;4997666;28;20375;-74
2023/11/12 09:24:02;;;;;;;30.35;23.58;;;7.80;99.90;;;;;;4979515;28;20049;-74
2023/11/12 09:26:29;;;;;;;30.92;23.90;;;7.90;99.90;;;;;;4997337;28;20049;-76
2023/11/12 09:28:55;;;;;;;30.63;23.05;;;7.90;99.90;;;;;;4996240;28;20565;-75
2023/11/12 09:31:22;;;;;;;27.73;21.52;;;8.00;99.90;;;;;;5012092;28;20041;-73
2023/11/12 09:33:48;;;;;;;28.40;22.75;;;8.00;99.90;;;;;;4997775;28;20033;-75
2023/11/12 09:36:17;;;;;;;32.15;22.35;;;8.00;99.90;;;;;;4980202;28;20692;-76
2023/11/12 09:38:44;;;;;;;30.30;23.60;;;8.00;99.90;;;;;;4979183;28;20038;-73
2023/11/12 09:41:10;;;;;;;31.60;22.85;;;8.10;99.90;;;;;;4995619;28;20979;-75
2023/11/12 09:43:36;;;;;;;29.92;22.30;;;8.10;99.90;;;;;;4981463;28;20034;-75
2023/11/12 09:46:08;;;;;;;31.67;23.33;;;8.10;99.90;;;;;;4997474;28;20049;-75
2023/11/12 09:48:36;;;;;;;33.75;25.73;;;8.10;99.90;;;;;;4996787;28;20042;-74
2023/11/12 09:51:08;;;;;;;26.60;22.77;;;8.10;99.90;;;;;;4978577;28;20724;-76
2023/11/12 09:53:39;;;;;;;22.30;19.20;;;8.40;99.90;;;;;;4996616;28;20048;-74
2023/11/12 09:56:09;;;;;;;22.75;19.40;;;8.70;99.90;;;;;;4997955;28;20052;-76
2023/11/12 09:58:41;;;;;;;19.30;16.65;;;8.80;99.90;;;;;;4980039;28;20026;-75
2023/11/12 10:01:09;;;;;;;16.55;14.55;;;9.00;99.90;;;;;;4994214;28;20497;-76
2023/11/12 10:03:36;;;;;;;15.45;13.85;;;9.20;99.90;;;;;;4996291;28;21186;-75
2023/11/12 10:06:06;;;;;;;14.45;12.90;;;9.60;99.90;;;;;;5028180;28;20046;-74
2023/11/12 10:08:35;;;;;;;15.63;12.55;;;9.80;99.90;;;;;;5027070;28;20034;-74
2023/11/12 10:11:18;;;;;;;13.48;11.80;;;10.00;99.90;;;;;;4995896;28;20034;-73
2023/11/12 10:13:46;;;;;;;14.85;12.27;;;10.20;99.90;;;;;;4978164;28;20072;-74
2023/11/12 10:16:29;;;;;;;14.27;12.60;;;10.50;99.90;;;;;;5014503;28;20359;-74
2023/11/12 10:19:12;;;;;;;;;;;10.60;99.90;;;;;;4997760;28;20034;-73
2023/11/12 10:21:55;;;;;;;13.65;11.98;;;10.60;99.90;;;;;;5014146;28;19909;-75
2023/11/12 10:24:23;;;;;;;13.18;11.77;;;10.60;99.90;;;;;;4980185;28;20384;-75
2023/11/12 10:26:50;;;;;;;13.63;11.73;;;10.50;99.90;;;;;;5027978;28;20042;-75
2023/11/12 10:29:24;;;;;;;12.45;11.10;;;10.50;99.90;;;;;;4963585;28;20473;-75
2023/11/12 10:31:50;;;;;;;14.13;11.23;;;10.60;99.90;;;;;;4995097;28;20030;-74
2023/11/12 10:34:17;;;;;;;14.95;11.43;;;10.60;99.90;;;;;;4978525;28;20056;-75
2023/11/12 10:37:14;;;;;;;13.10;11.80;;;10.50;99.90;;;;;;4998366;28;20380;-75
2023/11/12 10:39:41;;;;;;;14.07;12.23;;;10.50;99.90;;;;;;4989313;28;20038;-76
2023/11/12 10:42:23;;;;;;;14.55;12.82;;;10.40;99.90;;;;;;4979169;28;20050;-74
2023/11/12 10:44:55;;;;;;;17.90;15.02;;;10.20;99.90;;;;;;4963048;28;20246;-74
2023/11/12 10:47:29;;;;;;;16.67;14.00;;;10.10;99.90;;;;;;5028262;28;20364;-73
2023/11/12 10:49:56;;;;;;;17.35;14.05;;;10.00;99.90;;;;;;4977706;28;20044;-74
2023/11/12 10:52:23;;;;;;;18.50;14.90;;;9.90;99.90;;;;;;4994746;28;20030;-74
2023/11/12 10:54:57;;;;;;;14.13;11.77;;;9.80;99.90;;;;;;5011118;28;20473;-74
2023/11/12 10:57:25;;;;;;;13.75;11.05;;;9.80;99.90;;;;;;4977881;28;20512;-74
2023/11/12 10:59:53;;;;;;;13.30;10.95;;;9.80;99.90;;;;;;5010932;28;20374;-74
2023/11/12 11:02:22;;;;;;;13.82;12.23;;;9.80;99.90;;;;;;5026163;28;20567;-75
2023/11/12 11:04:48;;;;;;;13.05;10.50;;;9.80;99.90;;;;;;5007697;28;20413;-74
2023/11/12 11:07:16;;;;;;;13.38;9.73;;;9.80;99.90;;;;;;4994093;28;20462;-74
2023/11/12 11:09:43;;;;;;;14.30;10.48;;;9.80;99.90;;;;;;4996555;28;20033;-75
2023/11/12 11:12:11;;;;;;;14.80;11.60;;;9.80;99.90;;;;;;4978880;28;20045;-74
2023/11/12 11:14:37;;;;;;;13.55;10.90;;;9.80;99.90;;;;;;4962858;28;20040;-74
2023/11/12 11:17:05;;;;;;;13.05;11.35;;;9.80;99.90;;;;;;4980077;28;20392;-74
2023/11/12 11:19:44;;;;;;;13.40;11.43;;;9.80;99.90;;;;;;4996127;28;20041;-74
2023/11/12 11:22:32;;;;;;;14.70;11.98;;;9.80;99.90;;;;;;4995297;28;20048;-74
2023/11/12 11:25:22;;;;;;;12.90;8.88;;;9.80;99.90;;;;;;5027680;28;20041;-74
2023/11/12 11:27:52;;;;;;;10.43;8.13;;;9.80;99.90;;;;;;4991608;28;20064;-75
2023/11/12 11:30:18;;;;;;;9.35;6.80;;;9.80;99.90;;;;;;4996223;28;20396;-74
2023/11/12 11:32:59;;;;;;;7.88;5.57;;;9.90;99.90;;;;;;4979047;28;20417;-74
2023/11/12 11:35:26;;;;;;;8.18;5.22;;;10.00;99.90;;;;;;4995518;28;20359;-74
2023/11/12 11:38:12;;;;;;;8.98;6.20;;;10.00;99.90;;;;;;4995307;28;20037;-74
2023/11/12 11:40:42;;;;;;;7.95;5.57;;;10.20;99.90;;;;;;4995946;28;20405;-74
2023/11/12 11:43:23;;;;;;;8.23;5.53;;;10.30;99.90;;;;;;4964046;28;20033;-75
2023/11/12 11:46:21;;;;;;;10.15;5.88;;;10.30;99.90;;;;;;4998387;28;20053;-74
2023/11/12 11:48:47;;;;;;;6.25;5.38;;;10.50;99.90;;;;;;4975928;28;20053;-73
2023/11/12 11:51:38;;;;;;;8.95;6.50;;;10.70;99.90;;;;;;4997380;28;20045;-74
2023/11/12 11:54:05;;;;;;;8.20;5.68;;;10.80;99.90;;;;;;4996849;28;20031;-76
2023/11/12 11:56:33;;;;;;;9.77;7.65;;;11.00;99.90;;;;;;5014212;28;20049;-78
2023/11/12 11:59:00;;;;;;;11.23;8.95;;;11.20;99.90;;;;;;4999041;28;20050;-78
2023/11/12 12:01:26;;;;;;;12.65;9.88;;;11.30;99.90;;;;;;4995826;28;20046;-77
2023/11/12 12:04:06;;;;;;;8.45;7.65;;;11.40;99.90;;;;;;4965400;28;21535;-79
2023/11/12 12:06:33;;;;;;;11.05;8.65;;;11.50;99.90;;;;;;4983911;28;20519;-78
2023/11/12 12:09:00;;;;;;;14.43;11.13;;;11.60;99.90;;;;;;5000530;28;20487;-78
2023/11/12 12:11:26;;;;;;;10.65;9.18;;;11.70;99.90;;;;;;4998129;28;20558;-78
2023/11/12 12:14:02;;;;;;;10.45;9.05;;;11.70;99.90;;;;;;4999013;28;20485;-78
2023/11/12 12:16:30;;;;;;;8.95;8.05;;;11.80;99.90;;;;;;4982997;28;20026;-79
2023/11/12 12:18:57;;;;;;;7.93;7.10;;;11.90;99.90;;;;;;4981550;28;20040;-78
2023/11/12 12:21:25;;;;;;;9.43;7.15;;;11.90;99.90;;;;;;4980325;28;20018;-78
2023/11/12 12:23:51;;;;;;;9.65;7.28;;;11.90;99.90;;;;;;5000844;28;20497;-81
2023/11/12 12:26:24;;;;;;;9.25;6.68;;;11.90;99.90;;;;;;4982415;28;20400;-84
2023/11/12 12:28:53;;;;;;;7.50;5.65;;;11.90;99.90;;;;;;5030717;28;20117;-83
2023/11/12 12:31:20;;;;;;;9.20;6.60;;;11.80;99.90;;;;;;4997314;28;20037;-80
2023/11/12 12:34:07;;;;;;;6.93;6.28;;;11.80;99.90;;;;;;4999508;28;20038;-82
2023/11/12 12:36:34;;;;;;;8.73;6.85;;;11.80;99.90;;;;;;4998478;28;20483;-83
2023/11/12 12:39:09;;;;;;;10.05;8.95;;;11.80;99.90;;;;;;4999072;28;20032;-80
2023/11/12 12:41:37;;;;;;;8.18;7.05;;;11.70;99.90;;;;;;4996323;28;20044;-79